Time;durP1;ratioP1;P1;durP2;ratioP2;P2;SDS_P1;SDS_P2;PMS_P1;PMS_P2;Temp;Humidity;BMP_temperature;BMP_pressure;BME280_temperature;BME280_humidity;BME280_pressure;Samples;Min_cycle;Max_cycle;Signal;HPM_P1;HPM_P2
2022/06/30 00:01:33;;;;;;;20.77;7.13;;;18.20;57.30;;;;;;5036296;28;20371;-83
2022/06/30 00:03:58;;;;;;;14.80;5.80;;;18.20;57.40;;;;;;5053719;28;20041;-82
2022/06/30 00:06:24;;;;;;;13.23;6.30;;;18.10;57.70;;;;;;5053320;28;20025;-83
2022/06/30 00:08:52;;;;;;;13.55;6.07;;;18.10;58.00;;;;;;5056098;28;20032;-83
2022/06/30 00:11:18;;;;;;;15.35;6.82;;;18.20;58.20;;;;;;5054206;28;20060;-85
2022/06/30 00:13:44;;;;;;;13.77;5.82;;;18.20;58.20;;;;;;5036022;28;20467;-85
2022/06/30 00:16:10;;;;;;;16.45;6.72;;;18.10;58.10;;;;;;5036453;28;20021;-84
2022/06/30 00:18:36;;;;;;;12.40;6.18;;;18.10;58.50;;;;;;5057087;28;20106;-86
2022/06/30 00:21:03;;;;;;;20.95;6.85;;;18.10;58.50;;;;;;5056078;28;20383;-85
2022/06/30 00:23:31;;;;;;;15.32;6.25;;;18.00;58.30;;;;;;5054378;28;20076;-84
2022/06/30 00:25:57;;;;;;;14.27;6.55;;;18.00;58.50;;;;;;5035893;28;20035;-84
2022/06/30 00:28:23;;;;;;;11.13;6.10;;;18.00;58.50;;;;;;5053543;28;20494;-83
2022/06/30 00:30:50;;;;;;;10.25;5.88;;;18.00;58.20;;;;;;5053823;28;20032;-84
2022/06/30 00:33:16;;;;;;;12.95;6.22;;;18.00;58.00;;;;;;5035961;28;20458;-85
2022/06/30 00:35:43;;;;;;;10.80;6.53;;;18.00;57.60;;;;;;5029198;28;20446;-85
2022/06/30 00:38:09;;;;;;;13.68;7.07;;;18.00;57.40;;;;;;5036157;28;20035;-84
2022/06/30 00:40:43;;;;;;;13.13;7.22;;;18.00;56.30;;;;;;5047577;28;20029;-85
2022/06/30 00:43:10;;;;;;;12.95;7.70;;;18.10;56.00;;;;;;5055156;28;20025;-85
2022/06/30 00:45:44;;;;;;;12.90;7.15;;;18.10;55.80;;;;;;5044541;28;20025;-85
2022/06/30 00:48:11;;;;;;;14.10;7.70;;;18.10;55.90;;;;;;5070148;28;20024;-85
2022/06/30 00:50:38;;;;;;;18.77;10.77;;;18.10;55.90;;;;;;5069326;28;20021;-84
2022/06/30 00:53:06;;;;;;;21.53;14.67;;;18.10;55.90;;;;;;5053990;28;20094;-84
2022/06/30 00:55:33;;;;;;;22.42;13.38;;;18.10;55.90;;;;;;5036124;28;20666;-82
2022/06/30 00:58:08;;;;;;;21.65;12.88;;;18.10;56.20;;;;;;5073184;28;20024;-83
2022/06/30 01:00:39;;;;;;;20.80;13.48;;;18.20;56.00;;;;;;5055356;28;20036;-82
2022/06/30 01:03:09;;;;;;;21.33;13.63;;;18.10;56.00;;;;;;5072623;28;20033;-83
2022/06/30 01:05:35;;;;;;;22.52;12.90;;;18.10;56.10;;;;;;5072756;28;20494;-83
2022/06/30 01:08:05;;;;;;;21.20;12.70;;;18.10;56.10;;;;;;5072684;28;20151;-83
2022/06/30 01:13:17;;;;;;;26.57;13.57;;;18.20;56.60;;;;;;5029962;28;20068;-82
2022/06/30 01:15:43;;;;;;;25.45;14.35;;;18.20;56.60;;;;;;5073132;28;20115;-82
2022/06/30 01:18:09;;;;;;;26.88;14.38;;;18.20;56.70;;;;;;5072779;28;20028;-84
2022/06/30 01:20:35;;;;;;;23.92;13.20;;;18.20;56.80;;;;;;5072725;28;20470;-82
2022/06/30 01:23:03;;;;;;;22.58;12.45;;;18.20;57.10;;;;;;5073388;28;20029;-83
2022/06/30 01:25:30;;;;;;;21.40;13.43;;;18.20;57.60;;;;;;5072983;28;20016;-83
2022/06/30 01:27:56;;;;;;;26.38;14.15;;;18.20;57.60;;;;;;5072651;28;20078;-84
2022/06/30 01:30:23;;;;;;;24.73;13.90;;;18.20;57.60;;;;;;5072638;28;20450;-83
2022/06/30 01:32:49;;;;;;;24.55;12.73;;;18.10;58.10;;;;;;5070577;28;20028;-83
2022/06/30 01:35:15;;;;;;;27.65;13.20;;;18.10;59.10;;;;;;5075532;28;20413;-83
2022/06/30 01:37:56;;;;;;;19.88;12.38;;;18.10;58.80;;;;;;5055869;28;20075;-83
2022/06/30 01:40:23;;;;;;;24.65;13.93;;;18.00;59.00;;;;;;5066877;28;20100;-83
2022/06/30 01:42:50;;;;;;;23.02;13.98;;;18.00;58.80;;;;;;5066957;28;20122;-83
2022/06/30 01:45:16;;;;;;;;;;;18.00;59.00;;;;;;5078151;28;20021;-84
2022/06/30 01:47:42;;;;;;;26.75;12.25;;;18.00;58.30;;;;;;5077609;28;19912;-83
2022/06/30 01:50:12;;;;;;;21.45;11.95;;;18.00;60.00;;;;;;5061028;28;20390;-83
2022/06/30 01:52:37;;;;;;;23.42;10.77;;;18.10;60.90;;;;;;5060544;28;20486;-84
2022/06/30 01:55:04;;;;;;;22.83;10.82;;;18.20;60.40;;;;;;5054232;28;20024;-83
2022/06/30 01:57:30;;;;;;;22.33;9.80;;;18.20;60.40;;;;;;5072925;28;20028;-84
2022/06/30 01:59:56;;;;;;;18.90;8.63;;;18.30;60.20;;;;;;5072389;28;20020;-85
2022/06/30 02:02:21;;;;;;;19.55;9.52;;;18.40;60.40;;;;;;5073394;28;20111;-84
2022/06/30 02:04:47;;;;;;;17.55;8.38;;;18.40;60.60;;;;;;5055652;28;20055;-83
2022/06/30 02:07:17;;;;;;;25.40;8.57;;;18.50;61.20;;;;;;5076317;28;20028;-85
2022/06/30 02:09:43;;;;;;;18.17;8.02;;;18.50;61.30;;;;;;5094111;28;20257;-83
2022/06/30 02:14:54;;;;;;;16.10;7.75;;;18.60;61.60;;;;;;5081484;28;20062;-84
2022/06/30 02:17:20;;;;;;;16.60;7.10;;;18.70;61.50;;;;;;5079257;28;20063;-84
2022/06/30 02:19:46;;;;;;;13.18;6.28;;;18.80;61.40;;;;;;5076018;28;20432;-85
2022/06/30 02:22:12;;;;;;;17.25;7.18;;;18.70;60.60;;;;;;5075053;28;20135;-84
2022/06/30 02:24:38;;;;;;;11.85;6.18;;;18.80;60.60;;;;;;5074152;28;20417;-84
2022/06/30 02:27:04;;;;;;;21.90;7.47;;;18.90;60.30;;;;;;5072612;28;20050;-84
2022/06/30 02:29:30;;;;;;;15.75;7.45;;;18.90;60.70;;;;;;5075998;28;20039;-84
2022/06/30 02:31:56;;;;;;;20.60;7.15;;;18.90;61.10;;;;;;5069890;28;20482;-84
2022/06/30 02:34:21;;;;;;;19.48;7.32;;;18.90;61.40;;;;;;5087364;28;20024;-84
2022/06/30 02:36:47;;;;;;;20.23;7.03;;;19.00;61.60;;;;;;5097994;28;20032;-82
2022/06/30 02:39:13;;;;;;;19.98;7.28;;;19.10;61.60;;;;;;5090220;28;20055;-84
2022/06/30 02:41:39;;;;;;;13.13;7.20;;;19.10;61.50;;;;;;5076551;28;20024;-84
2022/06/30 02:44:05;;;;;;;22.95;7.93;;;19.20;61.50;;;;;;5076952;28;20016;-83
2022/06/30 02:46:31;;;;;;;15.23;6.70;;;19.20;61.70;;;;;;5082731;28;20454;-83
2022/06/30 02:48:56;;;;;;;13.93;6.68;;;19.20;61.40;;;;;;5081058;28;20027;-85
2022/06/30 02:51:22;;;;;;;16.40;7.70;;;19.20;61.60;;;;;;5076286;28;20115;-84
2022/06/30 02:53:48;;;;;;;19.88;8.57;;;19.30;61.70;;;;;;5076094;28;20466;-84
2022/06/30 02:56:14;;;;;;;18.67;8.20;;;19.30;62.10;;;;;;5058080;28;20386;-85
2022/06/30 02:58:40;;;;;;;16.98;8.07;;;19.30;62.10;;;;;;5067512;28;20036;-84
2022/06/30 03:01:05;;;;;;;14.25;6.60;;;19.40;62.00;;;;;;5072198;28;20017;-84
2022/06/30 03:03:36;;;;;;;15.80;7.05;;;19.50;61.30;;;;;;5069739;28;20058;-85
2022/06/30 03:06:02;;;;;;;29.15;7.95;;;19.60;60.90;;;;;;5070174;28;20067;-84
2022/06/30 03:08:27;;;;;;;18.30;7.60;;;19.70;60.60;;;;;;5099337;28;20520;-85
2022/06/30 03:10:53;;;;;;;16.50;7.03;;;19.80;59.90;;;;;;5090855;28;20028;-83
2022/06/30 03:13:19;;;;;;;15.90;6.60;;;20.00;59.50;;;;;;5063073;28;20052;-85
2022/06/30 03:15:45;;;;;;;17.45;7.03;;;20.20;58.10;;;;;;5087030;28;20048;-83
2022/06/30 03:18:10;;;;;;;13.10;5.00;;;20.40;57.10;;;;;;5063770;28;20107;-83
2022/06/30 03:20:36;;;;;;;8.55;4.30;;;20.40;55.40;;;;;;5084013;28;20025;-84
2022/06/30 03:23:02;;;;;;;10.57;4.35;;;20.40;54.20;;;;;;5079468;28;20425;-84
2022/06/30 03:25:28;;;;;;;9.60;4.82;;;20.40;54.00;;;;;;5078593;28;20070;-85
2022/06/30 03:27:53;;;;;;;7.45;3.70;;;20.40;53.80;;;;;;5060175;28;20047;-84
2022/06/30 03:30:19;;;;;;;9.05;3.40;;;20.40;53.00;;;;;;5074990;28;20095;-84
2022/06/30 03:32:45;;;;;;;8.02;3.83;;;20.40;52.10;;;;;;5068358;28;20466;-84
2022/06/30 03:35:11;;;;;;;5.75;3.50;;;20.40;52.50;;;;;;5074684;28;20423;-85
2022/06/30 03:37:37;;;;;;;7.80;3.60;;;20.40;52.50;;;;;;5056630;28;20436;-85
2022/06/30 03:40:03;;;;;;;5.90;3.40;;;20.40;52.30;;;;;;5066286;28;20028;-84
2022/06/30 03:42:29;;;;;;;8.10;4.22;;;20.40;52.70;;;;;;5056026;28;20024;-84
2022/06/30 03:44:54;;;;;;;10.70;4.43;;;20.50;52.30;;;;;;5074813;28;20066;-83
2022/06/30 03:47:20;;;;;;;9.50;3.65;;;20.60;52.00;;;;;;5074168;28;20032;-84
2022/06/30 03:49:46;;;;;;;8.35;3.92;;;20.70;52.20;;;;;;5074299;28;20016;-86
2022/06/30 03:52:12;;;;;;;8.98;4.05;;;20.80;51.70;;;;;;5074543;28;20125;-85
2022/06/30 03:54:38;;;;;;;10.15;4.18;;;20.90;51.50;;;;;;5074047;28;20066;-84
2022/06/30 03:57:04;;;;;;;6.70;2.47;;;21.00;51.30;;;;;;5074252;28;20053;-85
2022/06/30 03:59:30;;;;;;;8.80;3.40;;;;;;;;;;5074905;28;20027;-84
2022/06/30 04:01:56;;;;;;;6.03;3.25;;;21.20;49.80;;;;;;5074398;28;20029;-84
2022/06/30 04:04:22;;;;;;;4.10;2.50;;;21.40;50.10;;;;;;5074286;28;20063;-85
2022/06/30 04:06:48;;;;;;;7.05;2.80;;;21.50;49.20;;;;;;5055993;28;20410;-86
2022/06/30 04:09:13;;;;;;;6.57;2.45;;;21.60;49.30;;;;;;5074162;28;20059;-84
2022/06/30 04:11:39;;;;;;;6.82;2.53;;;21.60;48.60;;;;;;5075606;28;20020;-84
2022/06/30 04:14:05;;;;;;;4.15;2.20;;;21.60;49.20;;;;;;5056870;28;20032;-85
2022/06/30 04:16:31;;;;;;;8.27;3.00;;;21.60;48.80;;;;;;5055629;28;20028;-84
2022/06/30 04:18:56;;;;;;;5.55;2.60;;;21.70;48.80;;;;;;5073739;28;20025;-83
2022/06/30 04:21:26;;;;;;;2.97;1.70;;;21.70;48.30;;;;;;5073468;28;20035;-86
2022/06/30 04:23:51;;;;;;;7.15;2.90;;;21.60;48.10;;;;;;5065908;28;20382;-84
2022/06/30 04:26:17;;;;;;;4.28;2.47;;;21.60;48.10;;;;;;5075081;28;20029;-86
2022/06/30 04:28:43;;;;;;;6.15;2.45;;;21.70;48.10;;;;;;5075988;28;20033;-86
2022/06/30 04:33:53;;;;;;;4.30;2.38;;;21.80;47.90;;;;;;5067729;28;20035;-86
2022/06/30 04:36:19;;;;;;;6.90;2.75;;;21.90;47.30;;;;;;5078067;28;20424;-85
2022/06/30 04:38:45;;;;;;;5.65;2.35;;;22.00;47.60;;;;;;5080303;28;20056;-86
2022/06/30 04:41:26;;;;;;;4.15;1.88;;;22.00;47.10;;;;;;5082401;28;20082;-86
2022/06/30 04:43:53;;;;;;;3.28;2.00;;;22.00;47.10;;;;;;5056095;28;20063;-86
2022/06/30 04:46:19;;;;;;;;;;;21.90;47.00;;;;;;5074201;28;20016;-84
2022/06/30 04:48:45;;;;;;;3.92;1.80;;;21.80;47.10;;;;;;5072981;28;20003;-87
2022/06/30 04:51:10;;;;;;;3.00;1.55;;;21.70;48.00;;;;;;5073820;28;20020;-85
2022/06/30 04:53:36;;;;;;;5.40;1.90;;;21.80;47.60;;;;;;5074796;28;20415;-85
2022/06/30 04:56:02;;;;;;;3.92;1.65;;;21.80;47.70;;;;;;5079700;28;20036;-89
2022/06/30 04:58:28;;;;;;;2.63;1.77;;;21.80;47.30;;;;;;5059095;28;20032;-87
2022/06/30 05:00:54;;;;;;;4.93;1.48;;;21.90;47.40;;;;;;5073929;28;20233;-86
2022/06/30 05:03:20;;;;;;;7.68;3.45;;;21.90;46.40;;;;;;5073351;28;20041;-85
2022/06/30 05:05:45;;;;;;;3.13;1.40;;;21.90;46.80;;;;;;5055717;28;20049;-88
2022/06/30 05:08:11;;;;;;;4.22;1.92;;;22.00;46.30;;;;;;5073062;28;20020;-85
2022/06/30 05:10:37;;;;;;;3.67;1.90;;;22.10;46.30;;;;;;5073924;28;20025;-86
2022/06/30 05:13:04;;;;;;;4.18;2.15;;;22.20;46.60;;;;;;5075498;28;20020;-87
2022/06/30 05:15:30;;;;;;;5.22;1.58;;;22.40;46.30;;;;;;5074355;28;20081;-86
2022/06/30 05:17:56;;;;;;;4.10;1.92;;;23.10;45.60;;;;;;5073327;28;20032;-86
2022/06/30 05:20:22;;;;;;;2.95;1.42;;;23.90;43.20;;;;;;5077414;28;20035;-89
2022/06/30 05:22:48;;;;;;;2.43;1.50;;;24.90;41.30;;;;;;5086870;28;20012;-86
2022/06/30 05:27:59;;;;;;;2.25;1.50;;;26.90;37.70;;;;;;5070904;28;20040;-88
2022/06/30 05:30:24;;;;;;;2.60;1.30;;;27.70;36.30;;;;;;5072133;28;20014;-87
2022/06/30 05:32:50;;;;;;;3.22;1.45;;;27.90;35.80;;;;;;5073163;28;20024;-86
2022/06/30 05:35:16;;;;;;;8.75;1.30;;;28.30;35.30;;;;;;5072282;28;20024;-88
2022/06/30 05:37:42;;;;;;;2.13;1.65;;;28.40;35.10;;;;;;5059212;28;20032;-86
2022/06/30 05:40:08;;;;;;;4.70;1.50;;;28.60;35.10;;;;;;5074977;28;20023;-87
2022/06/30 05:42:43;;;;;;;5.88;1.30;;;29.50;35.20;;;;;;5060236;28;20024;-86
2022/06/30 05:45:10;;;;;;;2.08;1.10;;;29.90;32.90;;;;;;5077399;28;20099;-85
2022/06/30 05:47:47;;;;;;;3.27;1.43;;;30.00;32.20;;;;;;5059565;28;20029;-84
2022/06/30 05:50:14;;;;;;;6.55;1.50;;;30.30;32.00;;;;;;5078345;28;20286;-84
2022/06/30 05:52:41;;;;;;;1.38;0.75;;;30.40;31.70;;;;;;5058357;28;20032;-85
2022/06/30 05:55:07;;;;;;;12.85;1.80;;;30.40;31.80;;;;;;5076233;28;20032;-84
2022/06/30 05:57:33;;;;;;;4.05;1.20;;;30.50;31.50;;;;;;5057501;28;20394;-84
2022/06/30 05:59:59;;;;;;;2.22;1.38;;;31.20;30.70;;;;;;5060339;28;20043;-85
2022/06/30 06:02:25;;;;;;;4.23;1.40;;;32.00;30.00;;;;;;5063813;28;20029;-86
2022/06/30 06:04:51;;;;;;;5.65;1.95;;;32.80;29.40;;;;;;5076408;28;20112;-87
2022/06/30 06:07:17;;;;;;;2.47;1.60;;;33.30;28.40;;;;;;5079971;28;20094;-85
2022/06/30 06:09:42;;;;;;;3.70;1.83;;;33.20;27.80;;;;;;5062764;28;20107;-87
2022/06/30 06:12:09;;;;;;;3.80;1.10;;;33.50;27.70;;;;;;5063715;28;20028;-85
2022/06/30 06:14:34;;;;;;;2.75;1.38;;;33.80;27.80;;;;;;5066771;28;20073;-86
2022/06/30 06:17:00;;;;;;;3.33;1.57;;;34.60;28.00;;;;;;5093412;28;20028;-85
2022/06/30 06:19:26;;;;;;;4.83;1.60;;;35.60;26.90;;;;;;5085076;28;20037;-84
2022/06/30 06:21:52;;;;;;;4.40;1.50;;;36.50;26.10;;;;;;5061448;28;20040;-86
2022/06/30 06:24:17;;;;;;;4.40;2.03;;;37.00;26.10;;;;;;5078534;28;20036;-85
2022/06/30 06:26:43;;;;;;;6.70;1.30;;;37.10;25.50;;;;;;5078295;28;20051;-86
2022/06/30 06:31:54;;;;;;;5.32;1.10;;;37.80;24.30;;;;;;5077241;28;20284;-84
2022/06/30 06:34:19;;;;;;;7.43;1.60;;;38.10;24.70;;;;;;5076047;28;20021;-91
2022/06/30 06:36:45;;;;;;;2.70;1.70;;;38.20;23.90;;;;;;5079416;28;20273;-90
2022/06/30 06:39:12;;;;;;;3.38;1.60;;;37.30;24.00;;;;;;5080135;28;20066;-92
2022/06/30 06:41:38;;;;;;;7.05;2.75;;;36.30;24.70;;;;;;5065242;28;20402;-87
2022/06/30 06:44:04;;;;;;;6.87;2.03;;;36.30;25.60;;;;;;5064084;28;20070;-90
2022/06/30 06:46:31;;;;;;;3.35;1.55;;;37.00;25.20;;;;;;5064860;28;20078;-91
2022/06/30 06:49:06;;;;;;;3.33;1.85;;;37.50;24.50;;;;;;5082495;28;20066;-90
2022/06/30 06:51:34;;;;;;;3.15;1.83;;;38.10;24.60;;;;;;5074021;28;20040;-89
2022/06/30 06:54:01;;;;;;;8.68;2.97;;;38.90;24.80;;;;;;5085322;28;20040;-90
2022/06/30 06:56:27;;;;;;;2.55;1.52;;;38.90;24.50;;;;;;5085249;28;20024;-91
2022/06/30 06:58:53;;;;;;;;;;;38.60;24.30;;;;;;5067074;28;20040;-91
2022/06/30 07:01:19;;;;;;;2.60;1.20;;;38.70;24.40;;;;;;5080957;28;19904;-92
2022/06/30 07:03:46;;;;;;;2.85;0.95;;;38.40;24.10;;;;;;5084281;28;20061;-92
2022/06/30 07:06:11;;;;;;;;;;;38.20;24.20;;;;;;5049509;28;20048;-90
2022/06/30 07:08:38;;;;;;;;;;;37.80;24.80;;;;;;5065169;28;19916;-91
2022/06/30 07:11:05;;;;;;;2.13;1.10;;;38.10;24.60;;;;;;5082833;28;19962;-93
2022/06/30 07:13:32;;;;;;;;;;;37.60;24.90;;;;;;5083031;28;20021;-91
2022/06/30 07:15:59;;;;;;;6.88;1.45;;;38.20;25.00;;;;;;5080608;28;19919;-93
2022/06/30 07:18:24;;;;;;;2.63;1.20;;;38.90;24.40;;;;;;5082543;28;20031;-93
2022/06/30 07:20:50;;;;;;;3.03;1.55;;;39.30;23.90;;;;;;5082706;28;20017;-90
2022/06/30 07:23:16;;;;;;;4.78;1.40;;;38.60;23.90;;;;;;5089223;28;20021;-92
2022/06/30 07:25:42;;;;;;;3.97;1.55;;;38.40;23.90;;;;;;5084613;28;20021;-88
2022/06/30 07:28:08;;;;;;;2.92;1.42;;;38.90;23.90;;;;;;5062710;28;20124;-93
2022/06/30 07:30:37;;;;;;;7.57;1.92;;;39.20;24.10;;;;;;5048247;28;20126;-90
2022/06/30 07:33:03;;;;;;;7.72;1.50;;;39.40;24.10;;;;;;5067883;28;20040;-92
2022/06/30 07:35:28;;;;;;;2.40;1.20;;;39.60;23.70;;;;;;5070850;28;20066;-91
2022/06/30 07:37:54;;;;;;;4.47;1.30;;;39.90;23.90;;;;;;5082932;28;20039;-92
2022/06/30 07:40:20;;;;;;;2.22;1.10;;;40.50;24.00;;;;;;5067457;28;20020;-90
2022/06/30 07:42:48;;;;;;;3.65;1.27;;;40.60;23.50;;;;;;5083152;28;20032;-91
2022/06/30 07:45:14;;;;;;;5.20;1.30;;;40.10;23.80;;;;;;5084013;28;20088;-91
2022/06/30 07:47:46;;;;;;;3.35;0.98;;;40.20;24.10;;;;;;5087005;28;20033;-91
2022/06/30 07:50:12;;;;;;;4.05;1.38;;;41.30;23.90;;;;;;5067570;28;20083;-90
2022/06/30 07:52:38;;;;;;;3.67;1.27;;;41.80;24.00;;;;;;5071661;28;20411;-90
2022/06/30 07:55:05;;;;;;;4.45;1.27;;;42.30;23.70;;;;;;5066693;28;20113;-90
2022/06/30 07:57:31;;;;;;;4.85;1.52;;;42.30;23.40;;;;;;5046402;28;20067;-91
2022/06/30 07:59:57;;;;;;;;;;;42.80;23.40;;;;;;5059342;28;20080;-91
2022/06/30 08:02:23;;;;;;;2.85;1.60;;;42.80;23.90;;;;;;5079628;28;19904;-89
2022/06/30 08:04:49;;;;;;;;;;;42.40;23.30;;;;;;5055847;28;20112;-91
2022/06/30 08:07:14;;;;;;;3.42;1.75;;;41.40;23.80;;;;;;5073119;28;19960;-90
2022/06/30 08:09:40;;;;;;;5.13;1.40;;;41.20;23.90;;;;;;5073375;28;20117;-90
2022/06/30 08:12:06;;;;;;;;;;;41.70;24.70;;;;;;5059435;28;20037;-89
2022/06/30 08:14:33;;;;;;;7.20;1.52;;;41.60;24.20;;;;;;5073941;28;19939;-91
2022/06/30 08:17:00;;;;;;;4.93;1.50;;;40.80;23.90;;;;;;5048503;28;20021;-90
2022/06/30 08:19:26;;;;;;;5.00;1.38;;;40.40;24.40;;;;;;5062684;28;20013;-90
2022/06/30 08:21:51;;;;;;;3.60;1.55;;;40.50;24.20;;;;;;5045527;28;20108;-89
2022/06/30 08:24:19;;;;;;;5.03;1.52;;;40.70;24.10;;;;;;5061774;28;20025;-91
2022/06/30 08:26:45;;;;;;;4.43;1.60;;;40.60;24.30;;;;;;5061216;28;20052;-92
2022/06/30 08:29:12;;;;;;;;;;;41.00;24.30;;;;;;5060374;28;20017;-92
2022/06/30 08:31:39;;;;;;;4.68;1.80;;;41.60;24.60;;;;;;5061871;28;19904;-92
2022/06/30 08:34:05;;;;;;;4.03;1.75;;;41.20;23.90;;;;;;5061551;28;20020;-91
2022/06/30 08:36:31;;;;;;;;;;;41.50;24.00;;;;;;5061714;28;20021;-93
2022/06/30 08:38:57;;;;;;;2.85;1.48;;;42.40;24.30;;;;;;5056729;28;19912;-90
2022/06/30 08:44:08;;;;;;;6.03;1.67;;;43.00;23.80;;;;;;5059774;28;19912;-92
2022/06/30 08:46:49;;;;;;;4.35;1.58;;;42.80;23.40;;;;;;5061230;28;20389;-92
2022/06/30 08:49:14;;;;;;;4.28;2.58;;;41.30;23.50;;;;;;5059253;28;20025;-90
2022/06/30 08:51:45;;;;;;;9.93;3.38;;;40.40;24.10;;;;;;5061466;28;20466;-91
2022/06/30 08:54:12;;;;;;;10.10;4.40;;;39.10;24.80;;;;;;5042040;28;20120;-90
2022/06/30 08:56:40;;;;;;;9.43;3.80;;;38.90;24.90;;;;;;5047650;28;20025;-89
2022/06/30 08:59:06;;;;;;;4.88;1.95;;;39.00;25.00;;;;;;5043069;28;20477;-93
2022/06/30 09:01:32;;;;;;;6.90;2.22;;;39.90;24.90;;;;;;5042912;28;20044;-93
2022/06/30 09:03:58;;;;;;;4.35;1.80;;;41.00;24.20;;;;;;5073257;28;20033;-92
2022/06/30 09:06:24;;;;;;;;;;;41.50;24.30;;;;;;5079742;28;20031;-90
2022/06/30 09:08:51;;;;;;;3.72;2.00;;;41.30;24.40;;;;;;5073544;28;19909;-92
2022/06/30 09:11:17;;;;;;;5.22;2.05;;;41.50;24.20;;;;;;5079675;28;20025;-92
2022/06/30 09:13:44;;;;;;;;;;;41.30;23.30;;;;;;5081855;28;20054;-91
2022/06/30 09:16:13;;;;;;;9.15;2.00;;;40.20;23.80;;;;;;5082264;28;19905;-90
2022/06/30 09:18:39;;;;;;;4.18;2.03;;;40.20;24.40;;;;;;5064100;28;20374;-91
2022/06/30 09:21:26;;;;;;;6.18;1.75;;;40.10;24.30;;;;;;5035106;28;20025;-92
2022/06/30 09:23:52;;;;;;;6.10;2.15;;;40.00;24.40;;;;;;5072262;28;20020;-91
2022/06/30 09:26:20;;;;;;;5.85;1.92;;;40.30;24.30;;;;;;5080316;28;20073;-90
2022/06/30 09:28:53;;;;;;;4.03;2.22;;;40.30;24.40;;;;;;5068487;28;20177;-91
2022/06/30 09:31:33;;;;;;;3.45;1.90;;;40.50;24.40;;;;;;5065517;28;20021;-90
2022/06/30 09:34:10;;;;;;;5.82;2.47;;;40.30;23.90;;;;;;5065669;28;20020;-90
2022/06/30 09:36:36;;;;;;;7.55;2.40;;;39.70;24.30;;;;;;5065575;28;20020;-91
2022/06/30 09:39:05;;;;;;;7.65;3.63;;;38.90;24.40;;;;;;5083609;28;20040;-91
2022/06/30 09:41:39;;;;;;;9.00;2.92;;;38.10;25.10;;;;;;5064995;28;20048;-88
2022/06/30 09:44:22;;;;;;;7.70;2.45;;;38.00;25.10;;;;;;5081054;28;20107;-92
2022/06/30 09:47:07;;;;;;;4.30;2.03;;;38.30;25.30;;;;;;5062136;28;20025;-91
2022/06/30 09:49:49;;;;;;;7.13;2.10;;;38.50;25.00;;;;;;5049109;28;20032;-93
2022/06/30 09:52:25;;;;;;;2.08;1.27;;;39.10;25.00;;;;;;5063845;28;20461;-90
2022/06/30 09:55:06;;;;;;;3.97;1.90;;;39.10;24.50;;;;;;5060927;28;20119;-91
2022/06/30 09:57:41;;;;;;;5.72;1.80;;;38.80;24.80;;;;;;5073086;28;20035;-92
2022/06/30 10:00:11;;;;;;;9.10;1.63;;;39.30;24.60;;;;;;5025338;28;20538;-88
2022/06/30 10:02:51;;;;;;;4.15;1.70;;;39.90;24.50;;;;;;5036177;28;20041;-89
2022/06/30 10:05:18;;;;;;;4.15;3.25;;;40.00;25.00;;;;;;5037240;28;20076;-89
2022/06/30 10:07:45;;;;;;;5.80;2.10;;;39.90;24.40;;;;;;5036801;28;20056;-91
2022/06/30 10:10:19;;;;;;;6.35;1.60;;;39.90;24.40;;;;;;5003257;28;20034;-92
2022/06/30 10:12:45;;;;;;;8.02;3.58;;;40.10;24.60;;;;;;5036574;28;20243;-90
2022/06/30 10:15:16;;;;;;;7.63;2.05;;;40.00;24.50;;;;;;5038878;28;20033;-92
2022/06/30 10:17:45;;;;;;;6.82;2.00;;;39.10;24.80;;;;;;5029990;28;20029;-90
2022/06/30 10:20:12;;;;;;;8.80;2.25;;;38.50;24.80;;;;;;5038813;28;20037;-89
2022/06/30 10:22:39;;;;;;;10.85;4.22;;;38.40;25.00;;;;;;5038110;28;20053;-89
2022/06/30 10:25:06;;;;;;;6.60;1.58;;;37.60;25.60;;;;;;5022992;28;20577;-89
2022/06/30 10:27:32;;;;;;;6.18;2.03;;;37.40;25.10;;;;;;5041489;28;20079;-90
2022/06/30 10:30:03;;;;;;;;;;;37.00;25.60;;;;;;5023423;28;20018;-90
2022/06/30 10:32:50;;;;;;;9.70;5.18;;;;;;;;;;5078619;28;19904;-89
2022/06/30 10:35:30;;;;;;;9.48;2.47;;;35.60;26.00;;;;;;5066173;28;20047;-90
2022/06/30 10:38:34;;;;;;;4.95;1.60;;;34.40;27.20;;;;;;5090417;28;20020;-90
2022/06/30 10:41:18;;;;;;;16.70;7.75;;;32.40;27.90;;;;;;5070430;28;20017;-89
2022/06/30 10:44:06;;;;;;;6.80;1.58;;;30.70;29.70;;;;;;5080588;28;20382;-88
2022/06/30 10:46:35;;;;;;;8.27;2.40;;;;;;;;;;5078505;28;20101;-88
2022/06/30 10:49:09;;;;;;;4.78;2.10;;;29.60;29.90;;;;;;5061869;28;20115;-90
2022/06/30 10:51:35;;;;;;;5.43;2.30;;;28.20;31.50;;;;;;5086642;28;20544;-89
2022/06/30 10:54:01;;;;;;;7.72;2.95;;;27.50;32.60;;;;;;5077748;28;20055;-87
2022/06/30 10:56:49;;;;;;;5.50;2.28;;;27.00;33.50;;;;;;5081994;28;20047;-88
2022/06/30 10:59:34;;;;;;;15.35;2.60;;;26.50;34.20;;;;;;5075781;28;20031;-87
2022/06/30 11:02:14;;;;;;;4.78;1.70;;;26.10;35.30;;;;;;5082405;28;20486;-87
2022/06/30 11:04:44;;;;;;;6.88;2.70;;;25.80;36.30;;;;;;5067595;28;20048;-89
2022/06/30 11:07:12;;;;;;;9.93;2.55;;;25.70;36.60;;;;;;5084276;28;20104;-89
2022/06/30 11:09:43;;;;;;;12.27;2.55;;;25.60;37.30;;;;;;5084578;28;20453;-89
2022/06/30 11:12:14;;;;;;;3.80;2.08;;;25.70;37.30;;;;;;5081113;28;20058;-91
2022/06/30 11:14:54;;;;;;;5.63;2.05;;;25.70;36.90;;;;;;5083933;28;20021;-89
2022/06/30 11:17:30;;;;;;;5.10;1.98;;;25.70;37.00;;;;;;5076109;28;20025;-90
2022/06/30 11:20:12;;;;;;;6.90;1.98;;;25.60;37.30;;;;;;5081302;28;20031;-91
2022/06/30 11:22:39;;;;;;;4.13;1.88;;;25.60;37.00;;;;;;5064355;28;20058;-91
2022/06/30 11:25:08;;;;;;;7.22;1.75;;;25.60;37.00;;;;;;5084641;28;20057;-90
2022/06/30 11:27:36;;;;;;;5.57;2.35;;;25.60;36.90;;;;;;5087172;28;20120;-90
2022/06/30 11:30:17;;;;;;;3.75;1.70;;;25.60;37.10;;;;;;5083109;28;20428;-90
2022/06/30 11:32:43;;;;;;;6.15;2.20;;;25.50;37.30;;;;;;5064836;28;20028;-92
2022/06/30 11:35:08;;;;;;;4.43;2.13;;;25.50;38.00;;;;;;5082264;28;20067;-90
2022/06/30 11:37:34;;;;;;;3.40;1.73;;;25.60;37.90;;;;;;5064781;28;20064;-91
2022/06/30 11:40:12;;;;;;;4.70;1.98;;;25.70;36.60;;;;;;5082376;28;20073;-90
2022/06/30 11:42:39;;;;;;;6.25;2.22;;;25.70;36.90;;;;;;5084066;28;20046;-91
2022/06/30 11:45:23;;;;;;;3.85;1.92;;;25.60;37.00;;;;;;5064014;28;20024;-90
2022/06/30 11:47:54;;;;;;;3.72;1.65;;;25.50;36.80;;;;;;5065155;28;20043;-93
2022/06/30 11:50:26;;;;;;;9.82;1.98;;;25.50;37.90;;;;;;5081039;28;20032;-94
2022/06/30 11:52:54;;;;;;;3.70;1.90;;;25.50;38.30;;;;;;5087252;28;20044;-89
2022/06/30 11:55:29;;;;;;;4.28;1.73;;;25.50;38.60;;;;;;5070382;28;20032;-90
2022/06/30 11:57:59;;;;;;;7.03;2.13;;;25.40;37.80;;;;;;5159864;22;20052;-91
2022/06/30 12:00:28;;;;;;;3.67;1.90;;;25.30;38.00;;;;;;5064780;28;20029;-90
2022/06/30 12:02:55;;;;;;;7.82;2.35;;;25.30;38.20;;;;;;5042047;28;20048;-89
2022/06/30 12:05:23;;;;;;;6.68;3.10;;;25.30;38.40;;;;;;5052983;28;20021;-91
2022/06/30 12:07:50;;;;;;;4.78;1.95;;;25.30;39.20;;;;;;5050066;28;20025;-92
2022/06/30 12:10:21;;;;;;;5.00;1.53;;;25.40;39.20;;;;;;5048415;28;20032;-93
2022/06/30 12:12:47;;;;;;;6.13;2.55;;;25.50;38.90;;;;;;5026153;28;20314;-92
2022/06/30 12:15:16;;;;;;;7.30;2.60;;;25.60;38.30;;;;;;5061989;28;20024;-91
2022/06/30 12:17:47;;;;;;;3.75;2.00;;;25.70;38.00;;;;;;5063312;28;20021;-92
2022/06/30 12:20:14;;;;;;;6.47;2.22;;;25.60;38.30;;;;;;5044892;28;20025;-91
2022/06/30 12:22:42;;;;;;;6.28;1.80;;;25.70;38.30;;;;;;5063159;28;20053;-91
2022/06/30 12:25:09;;;;;;;8.68;1.60;;;25.70;37.90;;;;;;5047914;28;20049;-92
2022/06/30 12:27:41;;;;;;;6.38;1.90;;;25.70;37.60;;;;;;5029984;28;20040;-89
2022/06/30 12:30:10;;;;;;;3.78;2.15;;;25.60;37.40;;;;;;5048432;28;20044;-90
2022/06/30 12:32:36;;;;;;;6.93;2.15;;;25.60;37.90;;;;;;5063171;28;20483;-90
2022/06/30 12:35:06;;;;;;;4.68;1.77;;;25.70;36.60;;;;;;5063850;28;20104;-90
2022/06/30 12:37:40;;;;;;;3.95;1.80;;;25.70;35.00;;;;;;5057180;28;20017;-91
2022/06/30 12:40:09;;;;;;;3.70;1.80;;;25.60;34.80;;;;;;5040566;28;20462;-92
2022/06/30 12:42:39;;;;;;;7.30;2.03;;;25.60;34.60;;;;;;5065593;28;20021;-91
2022/06/30 12:45:05;;;;;;;5.40;1.60;;;25.70;34.50;;;;;;5056450;28;20032;-92
2022/06/30 12:47:31;;;;;;;2.75;1.77;;;25.70;35.10;;;;;;5066546;28;20043;-91
2022/06/30 12:49:57;;;;;;;4.45;1.63;;;25.70;35.40;;;;;;5058475;28;20033;-89
2022/06/30 12:52:24;;;;;;;6.00;1.63;;;25.70;36.00;;;;;;5058244;28;20025;-91
2022/06/30 12:54:52;;;;;;;8.25;1.73;;;25.70;36.40;;;;;;5073814;28;20033;-91
2022/06/30 12:57:18;;;;;;;9.63;2.03;;;25.80;36.40;;;;;;5046638;28;20041;-91
2022/06/30 12:59:51;;;;;;;6.72;2.05;;;25.90;36.30;;;;;;5042780;28;20113;-93
2022/06/30 13:02:18;;;;;;;8.40;2.67;;;25.90;36.40;;;;;;5046595;28;20021;-91
2022/06/30 13:04:56;;;;;;;5.45;1.90;;;25.80;36.60;;;;;;5050911;28;20026;-89
2022/06/30 13:07:22;;;;;;;4.28;1.80;;;25.70;36.90;;;;;;5047507;28;20055;-90
2022/06/30 13:09:49;;;;;;;8.73;1.92;;;25.70;36.70;;;;;;5050635;28;20021;-91